Share

Pago Pago, AS

2:08 PM SST on April 23, 2014 (GMT -1100)
Kona International At Keahole (PHKO) Elev 43 ft | 19.74 °N, 156.05 °W | Change Station

Current weather conditions updated 15 minutes ago

Clear
Clear
83 °F
Feels Like 85 °F
N
13
Wind Variable Wind from SSW
Sunrise 6:30 AM
Sunset 6:11 PM
Moon Waning Crescent

Today is forecast to be nearly the same temperature as yesterday.

Pressure 29.97 in
Visibility 10.0 miles
Clouds Clear
Heat Index 85 °F
Dew Point 67 °F
Humidity 58%
Rainfall 0.00 in
Snow Depth Not available.
UV 8 out of 16
Pollen Not available.
Air Quality Not available.
Flu Activity
METAR PHKO 240053Z 20011KT 10SM CLR 28/19 A2997 RMK AO2 SLP148 T02830194

More Conditions Fewer Conditions

Pressure 29.97 in
Visibility 10.0 miles
Clouds Clear
Heat Index 85 °F
Dew Point 67 °F
Humidity 58%
Rainfall 0.00 in
Snow Depth Not available.
UV 8 out of 16
Pollen Not available.
Air Quality Not available.
Flu Activity
METAR PHKO 240053Z 20011KT 10SM CLR 28/19 A2997 RMK AO2 SLP148 T02830194

More Conditions Fewer Conditions

10-Day Weather Forecast

Almanac

Astronomy

Apr. 23, 2014 Rise Set
Actual Time 6:30 AM SST 6:11 PM SST
Civil Twilight 6:08 AM SST 6:33 PM SST
Nautical Twilight 5:43 AM SST 6:58 PM SST
Astronomical Twilight 5:18 AM SST 7:23 PM SST
Moon 1:26 AM SST (4/23) 2:11 PM SST (4/23)
Length of Visible Light 12h 24m
Length of Day
11h 40m
Tomorrow will be 0m 41s shorter.
Waning Crescent, 31% of the Moon is Illuminated
Today
Waning Crescent
Apr 29
New
May 6
First Quarter
May 14
Full
May 21
Last Quarter

Community

  • Nestled In
    Nestled In
  • Stunning Sunrise
    Stunning Sunrise
  • spring flowers
    spring flowers
  • Earth Day Spectrum Ove' Blue
    Earth Day Spectrum Ove' Blue
  • BARN B&W
    BARN B&W

WunderPhotos

Upload Photos

1,704,482 photos uploaded!

Nearby

Snow Depth

Station Depth Elevation
No new snow has been reported.

Coastal Water Temperatures

Place Temperature
No Stations Reporting

Earthquake Activity

City Distance Mag. Time & Date
No recent earthquake activity has been reported nearby.
Minimum magnitude displayed is 2.5.

Nearby Weather Stations

There are no personal weather stations in this area.

What do you think?

We're not finished. Please let us know what you like, what you don't like, and what you are still missing.